Tropical Cyclones
[Index]
Main Index Home Page Stock Weather Photos Extreme Storms Discussion Storm News and Storm Chasing Reports Tropical Cyclones / Hurricanes / Typhoons Weather Data and Links Wild Fires / Bushfires Weather Observation Techniques Weather Picture Catalogue Tornado Pictures and Reports Stock Video Footage and DVDs for sale
Season 1962-1963 Tropical Cyclone 196352 Track Map
Season 1962-1963 Summaries: [BoM-AU] [JTWC-AU] [JTWC-SIO] [JTWC-SPAC] [JTWC-SH]
<<- Previous TC | JTWC 1962-1963 Season | Next TC ->>

click for intensity scale information  Lat/long Grid: Show Hide

 Date Labels: Show Hide

Joint Typhoon Warning Centre Cyclone Data

Name: 196352
Number: 499 / 6352

08 May 1963 12:00 UTC to 13 May 1963 18:00 UTC

    date/time    lat    long     hPa   cat  kts
1963-05-08 12   23.9   158.1                  30          
1963-05-08 18   23.5   158.7                  35          
1963-05-09 00   23.2   159.3                  35          
1963-05-09 06   23.0   160.0                  20          
1963-05-09 12   22.8   160.7                  15          
1963-05-09 18   22.5   160.9                  20          
1963-05-10 00   22.3   160.8                  25          
1963-05-10 06   22.2   160.3                  30          
1963-05-10 12   22.0   160.2                  35          
1963-05-10 18   21.6   160.8                  35          
1963-05-11 00   21.1   161.8                  30          
1963-05-11 06   20.6   162.8                  25          
1963-05-11 12   20.1   163.7                  25          
1963-05-11 18   19.6   164.5                  20          
1963-05-12 00   18.9   165.1                  20          
1963-05-12 06   17.7   165.4                  20          
1963-05-12 12   16.6   165.5                  15          
1963-05-12 18   15.7   165.3                  15          
1963-05-13 00   14.9   164.6                  10          
1963-05-13 06   14.1   163.5                  10          
1963-05-13 12   13.5   162.4                  10          
1963-05-13 18   13.1   161.5                  05          
Winds are 1-min average.

Tropical cyclone tracks developed by Michael Bath using data from the Joint Typhoon Warning Centre Best Tracks and Google Maps.


[Australian Severe Weather index] [Copyright Notice] [Email Contacts] [Search This Site] [Privacy Policy]
Document: tropical_cyclone_196352.htm Updated: 18 September 2016